createdAt,value
2022-12-22T00:01:13.537Z,5.00
2022-12-22T00:03:58.421Z,4.97
2022-12-22T00:06:44.909Z,4.96
2022-12-22T00:09:29.643Z,4.94
2022-12-22T00:12:14.486Z,4.85
2022-12-22T00:15:07.392Z,4.89
2022-12-22T00:17:52.227Z,4.75
2022-12-22T00:20:39.021Z,4.74
2022-12-22T00:23:27.440Z,4.73
2022-12-22T00:26:12.384Z,4.76
2022-12-22T00:28:57.356Z,4.69
2022-12-22T00:31:42.117Z,4.65
2022-12-22T00:34:32.636Z,4.59
2022-12-22T00:37:17.797Z,4.46
2022-12-22T00:40:03.675Z,4.59
2022-12-22T00:42:48.416Z,4.65
2022-12-22T00:45:33.801Z,4.63
2022-12-22T00:48:18.875Z,4.58
2022-12-22T00:51:04.208Z,4.57
2022-12-22T00:53:49.565Z,4.51
2022-12-22T00:56:36.247Z,4.47
2022-12-22T00:59:20.955Z,4.53
2022-12-22T01:02:05.896Z,4.58
2022-12-22T01:04:51.087Z,4.55
2022-12-22T01:07:37.877Z,4.56
2022-12-22T01:10:23.333Z,4.65
2022-12-22T01:13:09.403Z,4.65
2022-12-22T01:15:54.301Z,4.71
2022-12-22T01:18:39.319Z,4.75
2022-12-22T01:21:24.598Z,4.78
2022-12-22T01:24:09.543Z,4.94
2022-12-22T01:26:54.202Z,4.83
2022-12-22T01:29:40.355Z,4.78
2022-12-22T01:32:27.528Z,4.72
2022-12-22T01:35:12.278Z,4.72
2022-12-22T01:37:57.181Z,4.76
2022-12-22T01:40:43.411Z,4.80
2022-12-22T01:43:36.686Z,4.80
2022-12-22T01:49:16.022Z,4.92
2022-12-22T01:52:00.858Z,4.93
2022-12-22T01:54:45.622Z,5.08
2022-12-22T01:57:30.490Z,4.99
2022-12-22T02:00:15.285Z,5.07
2022-12-22T02:03:00.251Z,5.09
2022-12-22T02:05:47.060Z,5.09
2022-12-22T02:08:35.859Z,5.03
2022-12-22T02:11:26.140Z,5.06
2022-12-22T02:14:19.023Z,4.94
2022-12-22T02:17:06.749Z,4.99
2022-12-22T02:20:00.513Z,4.90
2022-12-22T02:22:50.833Z,4.91
2022-12-22T02:25:39.204Z,5.03
2022-12-22T02:28:25.851Z,4.95
2022-12-22T02:31:11.230Z,5.00
2022-12-22T02:33:55.941Z,5.06
2022-12-22T02:36:47.367Z,5.03
2022-12-22T02:39:37.242Z,5.05
2022-12-22T02:42:27.694Z,5.05
2022-12-22T02:45:15.200Z,5.01
2022-12-22T02:48:02.359Z,5.08
2022-12-22T02:50:50.501Z,5.00
2022-12-22T02:53:37.285Z,5.00
2022-12-22T02:56:24.152Z,5.06
2022-12-22T02:59:09.333Z,5.06
2022-12-22T03:01:56.565Z,5.08
2022-12-22T03:04:41.634Z,5.06
2022-12-22T03:07:26.393Z,5.14
2022-12-22T03:10:11.220Z,5.08
2022-12-22T03:12:56.100Z,5.15
2022-12-22T03:15:40.885Z,5.16
2022-12-22T03:18:27.806Z,5.16
2022-12-22T03:21:13.102Z,5.23
2022-12-22T03:23:58.306Z,5.17
2022-12-22T03:26:25.673Z,5.16
2022-12-22T03:28:52.937Z,5.23
2022-12-22T03:31:20.228Z,5.17
2022-12-22T03:33:48.969Z,5.22
2022-12-22T03:36:16.253Z,5.28
2022-12-22T03:38:43.518Z,5.19
2022-12-22T03:41:32.009Z,5.24
2022-12-22T03:44:17.096Z,5.29
2022-12-22T03:46:44.479Z,5.32
2022-12-22T03:49:13.306Z,5.23
2022-12-22T03:51:42.146Z,5.26
2022-12-22T03:54:09.722Z,5.35
2022-12-22T03:56:37.512Z,5.33
2022-12-22T03:59:05.054Z,5.41
2022-12-22T04:01:33.217Z,5.33
2022-12-22T04:04:00.626Z,5.35
2022-12-22T04:06:29.266Z,5.40
2022-12-22T04:08:56.521Z,5.41
2022-12-22T04:11:41.220Z,5.34
2022-12-22T04:14:08.658Z,5.40
2022-12-22T04:16:35.968Z,5.40
2022-12-22T04:19:03.351Z,5.37
2022-12-22T04:21:31.943Z,5.41
2022-12-22T04:23:59.211Z,5.50
2022-12-22T04:26:26.912Z,5.52
2022-12-22T04:28:54.660Z,5.54
2022-12-22T04:31:22.145Z,5.52
2022-12-22T04:33:49.673Z,5.55
2022-12-22T04:36:17.247Z,5.49
2022-12-22T04:38:45.856Z,5.50
2022-12-22T04:41:13.425Z,5.57
2022-12-22T04:43:40.718Z,5.52
2022-12-22T04:46:08.459Z,5.55
2022-12-22T04:48:35.842Z,5.55
2022-12-22T04:51:03.530Z,5.57
2022-12-22T04:53:31.919Z,5.46
2022-12-22T04:56:01.468Z,5.47
2022-12-22T04:58:29.144Z,5.41
2022-12-22T05:00:56.555Z,5.47
2022-12-22T05:03:24.207Z,5.55
2022-12-22T05:05:51.568Z,5.43
2022-12-22T05:08:18.848Z,5.50
2022-12-22T05:10:46.260Z,5.48
2022-12-22T05:13:14.832Z,5.43
2022-12-22T05:15:42.154Z,5.46
2022-12-22T05:18:09.647Z,5.38
2022-12-22T05:20:37.098Z,5.35
2022-12-22T05:23:04.355Z,5.37
2022-12-22T05:25:35.434Z,5.32
2022-12-22T05:28:03.017Z,5.39
2022-12-22T05:30:31.777Z,5.35
2022-12-22T05:32:59.104Z,5.48
2022-12-22T05:35:26.372Z,5.49
2022-12-22T05:37:53.644Z,5.49
2022-12-22T05:40:21.193Z,5.46
2022-12-22T05:42:48.511Z,5.56
2022-12-22T05:45:16.661Z,5.48
2022-12-22T05:47:45.770Z,5.48
2022-12-22T05:50:14.087Z,5.50
2022-12-22T05:52:41.777Z,5.49
2022-12-22T05:55:09.598Z,5.51
2022-12-22T05:57:37.083Z,5.63
2022-12-22T06:00:04.888Z,5.63
2022-12-22T06:02:32.250Z,5.71
2022-12-22T06:05:00.985Z,5.81
2022-12-22T06:07:28.325Z,5.82
2022-12-22T06:09:55.602Z,5.91
2022-12-22T06:12:22.866Z,5.91
2022-12-22T06:14:52.105Z,5.88
2022-12-22T06:17:19.375Z,5.93
2022-12-22T06:19:46.779Z,5.90
2022-12-22T06:22:15.430Z,5.93
2022-12-22T06:24:42.695Z,5.94
2022-12-22T06:27:11.019Z,5.93
2022-12-22T06:29:38.281Z,5.91
2022-12-22T06:32:05.879Z,5.92
2022-12-22T06:34:33.142Z,5.94
2022-12-22T06:37:00.451Z,5.93
2022-12-22T06:39:29.051Z,6.00
2022-12-22T06:42:14.008Z,5.97
2022-12-22T06:44:41.245Z,5.99
2022-12-22T06:47:08.510Z,6.04
2022-12-22T06:49:35.746Z,5.97
2022-12-22T06:52:03.001Z,6.09
2022-12-22T06:54:31.577Z,6.06
2022-12-22T06:57:00.111Z,6.07
2022-12-22T06:59:27.463Z,6.06
2022-12-22T07:01:54.918Z,6.07
2022-12-22T07:04:22.317Z,6.13
2022-12-22T07:06:49.604Z,6.13
2022-12-22T07:09:16.932Z,6.21
2022-12-22T07:11:45.549Z,6.12
2022-12-22T07:14:12.850Z,6.15
2022-12-22T07:16:40.172Z,6.17
2022-12-22T07:19:07.598Z,6.11
2022-12-22T07:21:34.860Z,6.13
2022-12-22T07:24:02.143Z,6.12
2022-12-22T07:26:29.469Z,6.17
2022-12-22T07:28:58.050Z,6.22
2022-12-22T07:31:25.438Z,6.28
2022-12-22T07:33:52.754Z,6.25
2022-12-22T07:36:21.157Z,6.39
2022-12-22T07:38:49.143Z,6.43
2022-12-22T07:41:34.852Z,6.47
2022-12-22T07:44:04.065Z,6.60
2022-12-22T07:46:32.436Z,6.64
2022-12-22T07:49:17.548Z,6.74
2022-12-22T07:51:45.084Z,6.74
2022-12-22T07:54:13.244Z,6.75
2022-12-22T07:56:40.853Z,6.73
2022-12-22T07:59:09.481Z,6.72
2022-12-22T08:01:36.846Z,6.71
2022-12-22T08:04:04.701Z,6.67
2022-12-22T08:06:33.378Z,6.73
2022-12-22T08:09:01.042Z,6.71
2022-12-22T08:11:28.376Z,6.73
2022-12-22T08:14:01.013Z,6.73
2022-12-22T08:16:30.698Z,6.79
2022-12-22T08:18:58.460Z,6.89
2022-12-22T08:21:25.764Z,6.97
2022-12-22T08:23:53.193Z,7.24
2022-12-22T08:26:22.983Z,7.49
2022-12-22T08:28:51.721Z,7.66
2022-12-22T08:31:23.142Z,7.91
2022-12-22T08:33:53.209Z,8.05
2022-12-22T08:36:20.543Z,8.16
2022-12-22T08:38:48.003Z,8.10
2022-12-22T08:41:16.237Z,8.15
2022-12-22T08:43:43.521Z,8.21
2022-12-22T08:46:11.514Z,8.31
2022-12-22T08:48:40.737Z,8.41
2022-12-22T08:51:09.311Z,8.55
2022-12-22T08:54:03.244Z,8.60
2022-12-22T08:56:24.860Z,8.65
2022-12-22T08:59:09.196Z,8.87
2022-12-22T09:01:38.835Z,8.98
2022-12-22T09:04:07.826Z,9.06
2022-12-22T09:06:40.807Z,8.98
2022-12-22T09:09:11.253Z,9.08
2022-12-22T09:11:39.539Z,9.17
2022-12-22T09:14:09.487Z,9.23
2022-12-22T09:16:37.433Z,9.21
2022-12-22T09:19:06.279Z,9.16
2022-12-22T09:21:33.881Z,9.30
2022-12-22T09:24:01.270Z,9.36
2022-12-22T09:26:29.951Z,9.54
2022-12-22T09:28:58.672Z,9.57
2022-12-22T09:31:27.628Z,9.69
2022-12-22T09:33:55.252Z,9.78
2022-12-22T09:36:24.845Z,9.76
2022-12-22T09:38:52.684Z,9.79
2022-12-22T09:41:32.209Z,9.77
2022-12-22T09:44:04.220Z,9.85
2022-12-22T09:46:36.253Z,9.80
2022-12-22T09:49:06.046Z,9.83
2022-12-22T09:51:40.303Z,9.78
2022-12-22T09:54:10.535Z,9.80
2022-12-22T09:56:37.914Z,9.70
2022-12-22T09:59:11.118Z,9.66
2022-12-22T10:02:15.541Z,9.80
2022-12-22T10:04:55.160Z,9.79
2022-12-22T10:07:29.044Z,9.85
2022-12-22T10:09:56.436Z,9.91
2022-12-22T10:12:26.702Z,10.04
2022-12-22T10:14:55.252Z,10.08
2022-12-22T10:17:28.102Z,10.24
2022-12-22T10:20:09.496Z,10.27
2022-12-22T10:22:48.017Z,10.31
2022-12-22T10:25:35.864Z,10.30
2022-12-22T10:28:20.732Z,10.34
2022-12-22T10:30:48.465Z,10.37
2022-12-22T10:33:19.497Z,10.30
2022-12-22T10:35:52.581Z,10.20
2022-12-22T10:38:23.802Z,10.14
2022-12-22T10:41:01.592Z,10.07
2022-12-22T10:43:32.210Z,10.02
2022-12-22T10:46:00.637Z,9.92
2022-12-22T10:48:34.904Z,9.85
2022-12-22T10:51:05.305Z,9.87
2022-12-22T10:53:51.576Z,9.79
2022-12-22T10:56:23.116Z,9.80
2022-12-22T10:58:52.714Z,9.83
2022-12-22T11:01:30.479Z,9.70
2022-12-22T11:04:15.361Z,9.85
2022-12-22T11:06:44.535Z,9.83
2022-12-22T11:09:32.349Z,9.83
2022-12-22T11:12:07.878Z,9.90
2022-12-22T11:14:48.611Z,9.94
2022-12-22T11:17:23.721Z,10.02
2022-12-22T11:20:06.374Z,10.03
2022-12-22T11:22:41.407Z,10.13
2022-12-22T11:25:26.056Z,10.21
2022-12-22T11:28:10.397Z,10.20
2022-12-22T11:30:48.224Z,10.22
2022-12-22T11:33:26.978Z,10.33
2022-12-22T11:36:00.448Z,10.33
2022-12-22T11:38:45.751Z,10.28
2022-12-22T11:41:31.481Z,10.24
2022-12-22T11:44:17.572Z,10.27
2022-12-22T11:46:53.619Z,10.28
2022-12-22T11:49:33.691Z,10.16
2022-12-22T11:52:15.678Z,10.03
2022-12-22T11:55:09.041Z,10.03
2022-12-22T11:57:45.051Z,10.11
2022-12-22T12:00:15.006Z,10.13
2022-12-22T12:03:31.073Z,10.17
2022-12-22T12:06:18.487Z,10.27
2022-12-22T12:08:59.555Z,10.22
2022-12-22T12:11:33.857Z,10.19
2022-12-22T12:14:09.099Z,10.16
2022-12-22T12:16:43.244Z,10.20
2022-12-22T12:19:34.907Z,10.21
2022-12-22T12:22:05.887Z,10.28
2022-12-22T12:24:59.587Z,10.25
2022-12-22T12:27:42.694Z,10.33
2022-12-22T12:33:06.178Z,10.35
2022-12-22T12:35:47.492Z,10.31
2022-12-22T12:39:05.755Z,10.41
2022-12-22T12:41:24.442Z,10.51
2022-12-22T12:43:54.908Z,10.69
2022-12-22T12:46:45.420Z,10.90
2022-12-22T12:49:50.612Z,11.20
2022-12-22T12:52:17.985Z,11.63
2022-12-22T12:54:47.208Z,12.12
2022-12-22T12:57:30.910Z,12.70
2022-12-22T12:59:59.490Z,12.95
2022-12-22T13:02:33.487Z,13.15
2022-12-22T13:05:02.781Z,13.33
2022-12-22T13:08:07.475Z,13.31
2022-12-22T13:10:41.551Z,13.28
2022-12-22T13:13:14.617Z,13.20
2022-12-22T13:15:44.933Z,13.05
2022-12-22T13:18:49.890Z,13.03
2022-12-22T13:24:30.668Z,13.06
2022-12-22T13:27:04.863Z,13.03
2022-12-22T13:29:42.048Z,12.91
2022-12-22T13:32:21.329Z,12.92
2022-12-22T13:35:29.692Z,12.89
2022-12-22T13:37:49.043Z,12.95
2022-12-22T13:40:19.758Z,12.92
2022-12-22T13:42:50.561Z,12.88
2022-12-22T13:45:28.967Z,12.96
2022-12-22T13:47:56.854Z,12.90
2022-12-22T13:50:29.067Z,12.99
2022-12-22T13:52:58.127Z,12.89
2022-12-22T13:55:28.462Z,12.77
2022-12-22T13:57:59.446Z,12.83
2022-12-22T14:00:29.847Z,12.79
2022-12-22T14:02:57.498Z,12.68
2022-12-22T14:05:32.229Z,12.64
2022-12-22T14:08:01.989Z,12.62
2022-12-22T14:10:34.235Z,12.67
2022-12-22T14:13:06.717Z,12.60
2022-12-22T14:15:37.682Z,12.56
2022-12-22T14:18:06.568Z,12.63
2022-12-22T14:20:36.544Z,12.58
2022-12-22T14:23:07.271Z,12.50
2022-12-22T14:25:37.255Z,12.47
2022-12-22T14:28:07.395Z,12.56
2022-12-22T14:30:39.391Z,12.47
2022-12-22T14:33:28.566Z,12.46
2022-12-22T14:36:14.579Z,12.42
2022-12-22T14:38:44.397Z,12.29
2022-12-22T14:41:37.583Z,12.19
2022-12-22T14:44:06.026Z,12.23
2022-12-22T14:46:38.902Z,12.15
2022-12-22T14:49:06.988Z,12.15
2022-12-22T14:51:34.446Z,12.08
2022-12-22T14:54:03.390Z,12.15
2022-12-22T14:56:30.916Z,12.21
2022-12-22T14:59:22.688Z,12.10
2022-12-22T15:01:59.753Z,12.03
2022-12-22T15:04:28.340Z,12.06
2022-12-22T15:07:10.174Z,12.06
2022-12-22T15:12:31.052Z,12.03
2022-12-22T15:14:59.049Z,12.02
2022-12-22T15:17:27.851Z,12.10
2022-12-22T15:19:58.639Z,12.09
2022-12-22T15:22:26.061Z,12.10
2022-12-22T15:24:53.417Z,12.15
2022-12-22T15:27:20.799Z,12.14
2022-12-22T15:29:48.189Z,12.10
2022-12-22T15:32:15.652Z,12.04
2022-12-22T15:34:44.638Z,11.89
2022-12-22T15:37:13.436Z,11.84
2022-12-22T15:39:41.285Z,11.75
2022-12-22T15:42:08.681Z,11.79
2022-12-22T15:44:38.928Z,11.48
2022-12-22T15:47:07.087Z,11.29
2022-12-22T15:49:34.491Z,11.29
2022-12-22T15:52:05.210Z,11.21
2022-12-22T15:54:33.795Z,11.15
2022-12-22T15:57:02.194Z,10.92
2022-12-22T15:59:30.262Z,11.01
2022-12-22T16:02:01.369Z,10.83
2022-12-22T16:04:29.415Z,10.84
2022-12-22T16:06:57.289Z,10.81
2022-12-22T16:09:28.725Z,10.79
2022-12-22T16:11:56.132Z,10.78
2022-12-22T16:14:24.308Z,10.56
2022-12-22T16:16:51.823Z,10.66
2022-12-22T16:19:20.186Z,10.73
2022-12-22T16:21:51.193Z,10.57
2022-12-22T16:24:26.714Z,10.48
2022-12-22T16:26:57.737Z,10.45
2022-12-22T16:29:25.973Z,10.45
2022-12-22T16:31:53.996Z,10.42
2022-12-22T16:34:21.352Z,10.44
2022-12-22T16:36:48.764Z,10.49
2022-12-22T16:39:16.161Z,10.35
2022-12-22T16:41:45.110Z,10.40
2022-12-22T16:47:06.910Z,10.27
2022-12-22T16:49:34.263Z,10.33
2022-12-22T16:52:01.660Z,10.33
2022-12-22T16:54:29.073Z,10.27
2022-12-22T16:56:56.675Z,10.32
2022-12-22T16:59:25.619Z,10.31
2022-12-22T17:01:55.991Z,10.24
2022-12-22T17:04:26.842Z,10.23
2022-12-22T17:06:56.208Z,10.28
2022-12-22T17:09:28.068Z,10.20
2022-12-22T17:11:56.453Z,10.16
2022-12-22T17:14:30.838Z,10.28
2022-12-22T17:17:00.562Z,10.07
2022-12-22T17:19:28.001Z,10.04
2022-12-22T17:21:58.603Z,10.11
2022-12-22T17:24:28.636Z,9.99
2022-12-22T17:26:58.047Z,10.03
2022-12-22T17:29:26.746Z,10.09
2022-12-22T17:31:56.413Z,10.04
2022-12-22T17:34:24.222Z,10.00
2022-12-22T17:36:51.905Z,9.96
2022-12-22T17:39:21.816Z,9.97
2022-12-22T17:41:56.377Z,10.05
2022-12-22T17:44:28.230Z,10.01
2022-12-22T17:46:55.880Z,10.03
2022-12-22T17:49:23.386Z,9.99
2022-12-22T17:51:51.521Z,10.07
2022-12-22T17:54:23.079Z,10.07
2022-12-22T17:56:50.979Z,10.06
2022-12-22T17:59:18.388Z,10.10
2022-12-22T18:01:47.183Z,10.07
2022-12-22T18:04:14.706Z,10.14
2022-12-22T18:06:43.419Z,10.06
2022-12-22T18:09:19.453Z,10.08
2022-12-22T18:11:46.884Z,10.03
2022-12-22T18:14:15.650Z,9.79
2022-12-22T18:16:43.875Z,9.84
2022-12-22T18:19:12.716Z,9.86
2022-12-22T18:21:40.327Z,9.88
2022-12-22T18:24:15.608Z,9.88
2022-12-22T18:26:42.986Z,9.98
2022-12-22T18:29:14.703Z,9.91
2022-12-22T18:31:43.892Z,9.90
2022-12-22T18:34:13.085Z,9.92
2022-12-22T18:36:42.385Z,9.87
2022-12-22T18:39:17.549Z,9.92
2022-12-22T18:41:45.514Z,9.85
2022-12-22T18:44:16.758Z,9.71
2022-12-22T18:46:44.520Z,9.79
2022-12-22T18:49:13.719Z,9.69
2022-12-22T18:51:42.785Z,9.68
2022-12-22T18:54:23.059Z,9.61
2022-12-22T18:56:50.453Z,9.38
2022-12-22T18:59:24.401Z,9.35
2022-12-22T19:01:52.456Z,9.19
2022-12-22T19:04:21.356Z,9.10
2022-12-22T19:06:48.710Z,8.99
2022-12-22T19:09:16.948Z,8.95
2022-12-22T19:11:44.480Z,8.78
2022-12-22T19:14:19.089Z,8.65
2022-12-22T19:16:47.493Z,8.68
2022-12-22T19:19:18.941Z,8.57
2022-12-22T19:21:48.608Z,8.60
2022-12-22T19:24:16.557Z,8.61
2022-12-22T19:26:44.373Z,8.54
2022-12-22T19:29:15.023Z,8.46
2022-12-22T19:31:45.029Z,8.33
2022-12-22T19:34:18.122Z,8.44
2022-12-22T19:36:45.545Z,8.34
2022-12-22T19:39:14.259Z,8.38
2022-12-22T19:41:44.668Z,8.28
2022-12-22T19:44:18.770Z,8.28
2022-12-22T19:46:46.377Z,8.29
2022-12-22T19:49:15.982Z,8.27
2022-12-22T19:51:43.380Z,8.26
2022-12-22T19:54:10.823Z,8.31
2022-12-22T19:56:40.923Z,8.23
2022-12-22T19:59:20.458Z,8.27
2022-12-22T20:01:53.097Z,8.24
2022-12-22T20:04:20.582Z,8.22
2022-12-22T20:06:48.023Z,8.08
2022-12-22T20:09:15.402Z,8.16
2022-12-22T20:11:44.880Z,8.18
2022-12-22T20:14:16.685Z,8.03
2022-12-22T20:16:44.330Z,7.98
2022-12-22T20:19:14.131Z,7.90
2022-12-22T20:21:42.275Z,7.77
2022-12-22T20:24:19.401Z,7.87
2022-12-22T20:26:53.764Z,7.87
2022-12-22T20:29:22.224Z,7.92
2022-12-22T20:31:49.759Z,7.98
2022-12-22T20:34:17.158Z,8.00
2022-12-22T20:36:44.551Z,8.06
2022-12-22T20:39:16.155Z,8.02
2022-12-22T20:41:50.510Z,8.13
2022-12-22T20:44:22.265Z,7.99
2022-12-22T20:46:49.939Z,7.98
2022-12-22T20:49:17.472Z,8.03
2022-12-22T20:51:44.879Z,8.08
2022-12-22T20:54:14.250Z,8.20
2022-12-22T20:56:42.340Z,8.20
2022-12-22T20:59:13.502Z,8.26
2022-12-22T21:01:42.340Z,8.43
2022-12-22T21:04:09.963Z,8.55
2022-12-22T21:06:39.519Z,8.54
2022-12-22T21:09:06.949Z,8.56
2022-12-22T21:11:35.935Z,8.43
2022-12-22T21:14:03.327Z,8.39
2022-12-22T21:16:33.993Z,8.42
2022-12-22T21:19:03.763Z,8.34
2022-12-22T21:21:31.533Z,8.46
2022-12-22T21:23:59.002Z,8.27
2022-12-22T21:26:32.158Z,8.23
2022-12-22T21:29:00.727Z,8.22
2022-12-22T21:31:28.503Z,8.06
2022-12-22T21:33:56.026Z,8.04
2022-12-22T21:36:28.921Z,7.96
2022-12-22T21:38:59.900Z,7.79
2022-12-22T21:41:41.441Z,7.77
2022-12-22T21:44:09.399Z,7.79
2022-12-22T21:46:36.895Z,7.74
2022-12-22T21:49:04.329Z,7.78
2022-12-22T21:51:33.078Z,7.73
2022-12-22T21:54:00.529Z,7.78
2022-12-22T21:56:27.935Z,7.77
2022-12-22T21:59:01.869Z,7.91
2022-12-22T22:01:31.074Z,7.89
2022-12-22T22:03:58.633Z,7.85
2022-12-22T22:06:26.096Z,7.82
2022-12-22T22:08:54.850Z,7.91
2022-12-22T22:11:23.969Z,7.94
2022-12-22T22:13:52.203Z,7.99
2022-12-22T22:16:20.687Z,7.96
2022-12-22T22:18:49.059Z,8.11
2022-12-22T22:21:18.347Z,8.07
2022-12-22T22:23:45.788Z,8.29
2022-12-22T22:26:14.588Z,8.19
2022-12-22T22:28:41.994Z,8.16
2022-12-22T22:31:10.919Z,7.99
2022-12-22T22:33:38.798Z,7.94
2022-12-22T22:36:07.199Z,7.90
2022-12-22T22:38:34.781Z,7.94
2022-12-22T22:41:02.448Z,7.93
2022-12-22T22:43:31.243Z,8.01
2022-12-22T22:45:58.713Z,7.92
2022-12-22T22:48:26.174Z,7.97
2022-12-22T22:50:53.631Z,7.86
2022-12-22T22:53:21.037Z,7.90
2022-12-22T22:55:48.428Z,7.90
2022-12-22T22:58:15.863Z,7.88
2022-12-22T23:00:44.564Z,7.83
2022-12-22T23:03:12.184Z,7.94
2022-12-22T23:05:40.032Z,7.91
2022-12-22T23:08:07.520Z,7.97
2022-12-22T23:10:41.123Z,8.02
2022-12-22T23:13:09.146Z,8.00
2022-12-22T23:15:36.540Z,8.07
2022-12-22T23:18:05.435Z,7.98
2022-12-22T23:20:32.861Z,7.95
2022-12-22T23:23:00.302Z,7.90
2022-12-22T23:25:27.728Z,7.85
2022-12-22T23:27:55.129Z,7.91
2022-12-22T23:30:22.570Z,7.88
2022-12-22T23:32:49.990Z,7.89
2022-12-22T23:35:18.788Z,7.84
2022-12-22T23:37:46.210Z,7.78
2022-12-22T23:43:01.344Z,7.79
2022-12-22T23:45:28.854Z,7.62
2022-12-22T23:47:56.311Z,7.62
2022-12-22T23:50:25.407Z,7.59
2022-12-22T23:52:53.862Z,7.53
2022-12-22T23:55:22.303Z,7.51
2022-12-22T23:57:50.863Z,7.55
